createdAt,value
2023-05-11T00:04:23.165Z,101744.91
2023-05-11T00:09:16.449Z,101736.91
2023-05-11T00:14:09.526Z,101729.72
2023-05-11T00:19:04.145Z,101682.00
2023-05-11T00:23:57.521Z,101736.19
2023-05-11T00:28:50.697Z,101744.06
2023-05-11T00:33:43.798Z,101738.00
2023-05-11T00:38:40.943Z,101734.78
2023-05-11T00:43:34.031Z,101745.44
2023-05-11T00:48:27.180Z,101733.47
2023-05-11T00:53:20.395Z,101710.91
2023-05-11T00:58:16.094Z,101726.41
2023-05-11T01:03:09.540Z,101734.31
2023-05-11T01:08:13.673Z,101702.53
2023-05-11T01:13:15.933Z,101731.59
2023-05-11T01:18:16.913Z,101736.28
2023-05-11T01:23:36.480Z,101721.22
2023-05-11T01:28:51.523Z,101739.81
2023-05-11T01:34:00.733Z,101718.66
2023-05-11T01:38:55.786Z,101724.75
2023-05-11T01:43:56.956Z,101707.09
2023-05-11T01:48:53.857Z,101724.34
2023-05-11T01:53:47.986Z,101709.34
2023-05-11T01:58:42.759Z,101724.91
2023-05-11T02:03:37.805Z,101740.59
2023-05-11T02:08:33.840Z,101716.78
2023-05-11T02:13:28.788Z,101732.34
2023-05-11T02:18:22.466Z,101707.88
2023-05-11T02:23:26.523Z,101737.78
2023-05-11T02:28:22.258Z,101718.25
2023-05-11T02:33:21.676Z,101725.91
2023-05-11T02:38:16.868Z,101725.13
2023-05-11T02:43:12.530Z,101733.84
2023-05-11T02:48:22.522Z,101737.25
2023-05-11T02:53:19.890Z,101745.19
2023-05-11T02:58:13.315Z,101716.59
2023-05-11T03:03:10.886Z,101754.91
2023-05-11T03:08:06.126Z,101763.59
2023-05-11T03:13:01.370Z,101756.59
2023-05-11T03:17:55.226Z,101750.19
2023-05-11T03:22:50.603Z,101763.38
2023-05-11T03:27:47.585Z,101750.81
2023-05-11T03:32:42.522Z,101744.09
2023-05-11T03:37:38.124Z,101770.47
2023-05-11T03:42:35.166Z,101746.91
2023-05-11T03:47:30.512Z,101760.41
2023-05-11T03:52:24.498Z,101789.84
2023-05-11T03:57:17.869Z,101791.44
2023-05-11T04:02:12.378Z,101796.53
2023-05-11T04:07:06.961Z,101808.34
2023-05-11T04:12:00.166Z,101807.25
2023-05-11T04:16:55.164Z,101791.78
2023-05-11T04:21:48.378Z,101807.59
2023-05-11T04:26:42.940Z,101808.88
2023-05-11T04:31:36.275Z,101814.25
2023-05-11T04:36:31.432Z,101807.81
2023-05-11T04:41:24.607Z,101776.91
2023-05-11T04:46:19.904Z,101804.84
2023-05-11T04:51:13.424Z,101798.28
2023-05-11T04:56:10.289Z,101800.03
2023-05-11T05:01:03.651Z,101794.84
2023-05-11T05:05:58.159Z,101807.84
2023-05-11T05:10:51.271Z,101810.97
2023-05-11T05:15:44.799Z,101808.84
2023-05-11T05:20:39.944Z,101798.47
2023-05-11T05:25:34.677Z,101760.88
2023-05-11T05:30:28.120Z,101761.28
2023-05-11T05:35:21.755Z,101769.25
2023-05-11T05:40:15.359Z,101816.13
2023-05-11T05:45:15.107Z,101773.38
2023-05-11T05:50:09.862Z,101730.97
2023-05-11T05:55:03.569Z,101812.91
2023-05-11T05:59:56.984Z,101804.78
2023-05-11T06:04:52.005Z,101775.19
2023-05-11T06:09:45.364Z,101797.94
2023-05-11T06:14:38.633Z,101797.75
2023-05-11T06:19:31.872Z,101831.75
2023-05-11T06:24:27.101Z,101818.50
2023-05-11T06:29:23.672Z,101822.56
2023-05-11T06:34:21.926Z,101817.16
2023-05-11T06:39:27.099Z,101822.47
2023-05-11T06:44:22.089Z,101811.16
2023-05-11T06:49:19.218Z,101816.56
2023-05-11T06:54:12.296Z,101821.19
2023-05-11T06:59:10.744Z,101626.81
2023-05-11T07:04:06.190Z,101806.81
2023-05-11T07:08:59.354Z,101810.97
2023-05-11T07:13:52.567Z,101808.31
2023-05-11T07:18:45.902Z,101816.78
2023-05-11T07:23:40.498Z,101805.44
2023-05-11T07:28:33.650Z,101811.72
2023-05-11T07:33:29.954Z,101820.94
2023-05-11T07:38:23.423Z,101810.84
2023-05-11T07:43:18.135Z,101799.50
2023-05-11T07:48:18.838Z,101807.84
2023-05-11T07:53:11.989Z,101782.81
2023-05-11T07:58:05.371Z,101786.34
2023-05-11T08:03:00.418Z,101798.88
2023-05-11T08:07:53.747Z,101816.69
2023-05-11T08:12:47.190Z,101806.88
2023-05-11T08:17:40.562Z,101806.69
2023-05-11T08:22:35.338Z,101795.88
2023-05-11T08:27:28.551Z,101772.66
2023-05-11T08:32:21.818Z,101764.91
2023-05-11T08:37:15.013Z,101793.09
2023-05-11T08:42:11.251Z,101772.31
2023-05-11T08:47:18.851Z,101753.09
2023-05-11T08:52:16.686Z,101746.44
2023-05-11T08:57:12.252Z,101751.81
2023-05-11T09:02:06.017Z,101760.22
2023-05-11T09:07:00.188Z,101739.81
2023-05-11T09:11:55.349Z,101761.75
2023-05-11T09:16:50.193Z,101744.78
2023-05-11T09:21:43.556Z,101714.38
2023-05-11T09:26:37.658Z,101708.94
2023-05-11T09:31:39.156Z,101750.03
2023-05-11T09:36:34.806Z,101751.19
2023-05-11T09:41:34.870Z,101700.84
2023-05-11T09:46:28.515Z,101708.22
2023-05-11T09:51:30.995Z,101737.00
2023-05-11T09:56:43.426Z,101743.84
2023-05-11T10:01:38.119Z,101742.63
2023-05-11T10:06:45.181Z,101694.59
2023-05-11T10:11:44.735Z,101711.94
2023-05-11T10:16:38.080Z,101711.97
2023-05-11T10:21:31.843Z,101713.91
2023-05-11T10:26:26.608Z,101704.84
2023-05-11T10:31:25.352Z,101697.97
2023-05-11T10:36:19.663Z,101709.97
2023-05-11T10:41:26.781Z,101696.91
2023-05-11T10:46:36.312Z,101701.41
2023-05-11T10:52:07.452Z,101698.03
2023-05-11T10:57:21.876Z,101685.91
2023-05-11T11:02:18.762Z,101681.19
2023-05-11T11:07:13.578Z,101665.56
2023-05-11T11:12:13.672Z,101650.72
2023-05-11T11:17:31.489Z,101679.94
2023-05-11T11:22:48.194Z,101689.56
2023-05-11T11:27:59.368Z,101678.28
2023-05-11T11:32:56.107Z,101656.72
2023-05-11T11:38:02.419Z,101603.31
2023-05-11T11:42:55.740Z,101666.53
2023-05-11T11:48:14.450Z,101674.56
2023-05-11T11:53:11.647Z,101590.75
2023-05-11T11:58:05.551Z,101651.88
2023-05-11T12:02:59.425Z,101622.25
2023-05-11T12:07:54.623Z,101660.13
2023-05-11T12:12:48.484Z,101627.13
2023-05-11T12:17:41.583Z,101631.06
2023-05-11T12:22:34.792Z,101626.22
2023-05-11T12:27:29.333Z,101617.81
2023-05-11T12:32:29.637Z,101629.31
2023-05-11T12:37:22.855Z,101623.81
2023-05-11T12:42:22.501Z,101616.50
2023-05-11T12:47:42.042Z,101603.13
2023-05-11T12:52:40.496Z,101608.97
2023-05-11T12:57:37.384Z,101600.59
2023-05-11T13:02:50.347Z,101576.78
2023-05-11T13:07:44.656Z,101590.91
2023-05-11T13:12:50.303Z,101544.44
2023-05-11T13:18:03.542Z,101468.53
2023-05-11T13:23:30.733Z,101546.84
2023-05-11T13:28:34.874Z,101488.84
2023-05-11T13:33:40.788Z,101460.53
2023-05-11T13:38:34.403Z,101568.78
2023-05-11T13:43:28.029Z,101582.28
2023-05-11T13:48:21.331Z,101559.63
2023-05-11T13:53:16.637Z,101536.44
2023-05-11T13:58:12.441Z,101542.00
2023-05-11T14:03:05.868Z,101580.75
2023-05-11T14:08:01.636Z,101524.91
2023-05-11T14:12:56.377Z,101578.97
2023-05-11T14:17:49.912Z,101563.13
2023-05-11T14:22:43.093Z,101575.00
2023-05-11T14:28:22.609Z,101544.44
2023-05-11T14:33:24.642Z,101501.81
2023-05-11T14:38:19.612Z,101566.81
2023-05-11T14:43:18.312Z,101403.94
2023-05-11T14:48:12.744Z,101489.22
2023-05-11T14:53:06.041Z,101401.09
2023-05-11T14:57:59.690Z,101486.25
2023-05-11T15:02:54.611Z,101586.91
2023-05-11T15:07:49.737Z,101550.47
2023-05-11T15:12:43.776Z,101382.25
2023-05-11T15:17:37.128Z,101473.94
2023-05-11T15:22:35.330Z,101339.63
2023-05-11T15:27:31.102Z,101492.97
2023-05-11T15:32:27.478Z,101488.31
2023-05-11T15:37:25.732Z,101561.28
2023-05-11T15:42:20.482Z,101498.31
2023-05-11T15:47:13.872Z,101489.09
2023-05-11T15:52:07.740Z,101578.91
2023-05-11T15:57:01.090Z,101487.75
2023-05-11T16:01:58.330Z,101546.38
2023-05-11T16:06:53.876Z,101516.69
2023-05-11T16:11:47.123Z,101584.03
2023-05-11T16:16:41.358Z,101525.38
2023-05-11T16:21:40.473Z,101506.03
2023-05-11T16:26:43.211Z,101531.25
2023-05-11T16:31:44.755Z,101435.41
2023-05-11T16:36:50.188Z,101551.69
2023-05-11T16:46:55.399Z,101597.78
2023-05-11T16:51:51.749Z,101621.78
2023-05-11T16:56:49.204Z,101583.22
2023-05-11T17:01:45.979Z,101507.56
2023-05-11T17:06:39.941Z,101438.84
2023-05-11T17:11:35.221Z,101534.91
2023-05-11T17:16:28.759Z,101643.34
2023-05-11T17:21:22.315Z,101541.28
2023-05-11T17:26:15.991Z,101641.31
2023-05-11T17:31:12.185Z,101573.97
2023-05-11T17:36:05.905Z,101638.56
2023-05-11T17:41:01.023Z,101500.28
2023-05-11T17:45:54.255Z,101663.00
2023-05-11T17:50:49.300Z,101662.63
2023-05-11T17:55:43.437Z,101624.28
2023-05-11T18:00:39.442Z,101623.03
2023-05-11T18:05:47.497Z,101679.25
2023-05-11T18:10:45.791Z,101510.06
2023-05-11T18:15:39.051Z,101647.59
2023-05-11T18:20:32.282Z,101689.94
2023-05-11T18:25:28.018Z,101665.94
2023-05-11T18:30:22.984Z,101692.84
2023-05-11T18:35:17.040Z,101698.72
2023-05-11T18:40:11.171Z,101700.03
2023-05-11T18:45:04.927Z,101619.38
2023-05-11T18:50:01.515Z,101725.63
2023-05-11T18:54:56.615Z,101718.06
2023-05-11T18:59:52.957Z,101725.72
2023-05-11T19:04:46.137Z,101653.63
2023-05-11T19:09:47.895Z,101589.84
2023-05-11T19:14:41.243Z,101616.81
2023-05-11T19:19:35.290Z,101678.88
2023-05-11T19:24:28.887Z,101727.25
2023-05-11T19:29:26.190Z,101735.38
2023-05-11T19:34:22.595Z,101738.78
2023-05-11T19:39:17.772Z,101709.53
2023-05-11T19:44:10.989Z,101745.31
2023-05-11T19:49:07.917Z,101737.19
2023-05-11T19:54:01.154Z,101738.13
2023-05-11T19:58:54.384Z,101653.09
2023-05-11T20:03:47.836Z,101638.06
2023-05-11T20:08:47.186Z,101733.16
2023-05-11T20:13:42.517Z,101751.84
2023-05-11T20:18:35.767Z,101755.56
2023-05-11T20:23:29.065Z,101758.44
2023-05-11T20:28:27.197Z,101702.69
2023-05-11T20:38:16.580Z,101671.97
2023-05-11T20:43:09.847Z,101652.31
2023-05-11T20:48:04.659Z,101665.25
2023-05-11T20:52:57.931Z,101766.19
2023-05-11T20:57:51.226Z,101767.13
2023-05-11T21:02:44.514Z,101630.47
2023-05-11T21:07:39.181Z,101572.53
2023-05-11T21:12:32.419Z,101758.00
2023-05-11T21:17:25.798Z,101772.16
2023-05-11T21:22:22.379Z,101745.78
2023-05-11T21:27:20.561Z,101661.97
2023-05-11T21:32:13.742Z,101692.50
2023-05-11T21:37:08.865Z,101768.19
2023-05-11T21:42:02.987Z,101747.28
2023-05-11T21:46:58.652Z,101766.06
2023-05-11T21:51:52.405Z,101716.00
2023-05-11T21:56:45.639Z,101749.03
2023-05-11T22:01:38.840Z,101763.84
2023-05-11T22:06:33.581Z,101763.44
2023-05-11T22:11:26.951Z,101763.78
2023-05-11T22:16:20.339Z,101670.16
2023-05-11T22:21:13.578Z,101748.47
2023-05-11T22:26:10.032Z,101752.69
2023-05-11T22:31:03.161Z,101747.63
2023-05-11T22:35:58.287Z,101741.28
2023-05-11T22:40:51.384Z,101728.16
2023-05-11T22:45:46.609Z,101601.69
2023-05-11T22:50:46.705Z,101729.34
2023-05-11T22:55:40.204Z,101721.47
2023-05-11T23:00:56.831Z,101725.22
2023-05-11T23:05:50.187Z,101721.00
2023-05-11T23:10:43.431Z,101633.44
2023-05-11T23:15:36.646Z,101734.50
2023-05-11T23:20:31.259Z,101742.31
2023-05-11T23:25:25.861Z,101749.75
2023-05-11T23:30:20.398Z,101710.63
2023-05-11T23:35:13.752Z,101702.16
2023-05-11T23:40:09.732Z,101744.19
2023-05-11T23:45:04.799Z,101696.03
2023-05-11T23:49:57.985Z,101745.34
2023-05-11T23:54:52.555Z,101681.59
2023-05-11T23:59:47.041Z,101751.44
